Time;durP1;ratioP1;P1;durP2;ratioP2;P2;SDS_P1;SDS_P2;PMS_P1;PMS_P2;Temp;Humidity;BMP_temperature;BMP_pressure;BME280_temperature;BME280_humidity;BME280_pressure;Samples;Min_cycle;Max_cycle;Signal;HPM_P1;HPM_P2
2021/11/21 00:00:42;;;;;;;46.60;14.55;;;;;;;6.48;100.00;101038.09;5039683;28;20053;-72
2021/11/21 00:03:10;;;;;;;46.42;14.32;;;;;;;6.49;100.00;101034.44;5039367;28;20299;-70
2021/11/21 00:05:41;;;;;;;50.22;15.68;;;;;;;6.44;100.00;101029.53;5038857;28;20468;-70
2021/11/21 00:08:09;;;;;;;39.72;16.13;;;;;;;6.42;100.00;101031.50;5036411;28;20045;-70
2021/11/21 00:10:39;;;;;;;42.45;15.13;;;;;;;6.48;100.00;101019.50;5038314;28;20040;-69
2021/11/21 00:13:07;;;;;;;42.80;13.93;;;;;;;6.52;100.00;101019.13;5033859;28;20129;-69
2021/11/21 00:15:35;;;;;;;40.53;13.07;;;;;;;6.46;100.00;101009.00;5039061;28;20045;-70
2021/11/21 00:18:05;;;;;;;38.78;12.68;;;;;;;6.48;100.00;101016.88;5040252;28;20069;-70
2021/11/21 00:20:33;;;;;;;36.50;14.10;;;;;;;6.42;100.00;101004.97;5034631;28;20057;-70
2021/11/21 00:23:01;;;;;;;35.30;12.23;;;;;;;6.39;100.00;101010.50;5043326;28;20057;-70
2021/11/21 00:25:29;;;;;;;30.27;11.50;;;;;;;6.45;100.00;101001.19;5041744;28;20041;-70
2021/11/21 00:27:58;;;;;;;33.72;11.27;;;;;;;6.43;100.00;101003.97;5039319;28;20041;-70
2021/11/21 00:30:26;;;;;;;34.00;11.70;;;;;;;6.47;100.00;100999.25;5047314;28;20049;-72
2021/11/21 00:32:54;;;;;;;33.50;10.68;;;;;;;6.49;100.00;101003.47;5036574;28;20041;-72
2021/11/21 00:35:22;;;;;;;28.92;10.35;;;;;;;6.47;100.00;100996.59;5042248;28;20041;-70
2021/11/21 00:37:50;;;;;;;31.40;10.80;;;;;;;6.50;100.00;100993.69;5039482;28;20037;-70
2021/11/21 00:40:18;;;;;;;30.67;10.40;;;;;;;6.45;100.00;100987.91;5041578;28;20050;-71
2021/11/21 00:42:46;;;;;;;29.55;10.70;;;;;;;6.45;100.00;100985.25;5039705;28;20053;-70
2021/11/21 00:45:15;;;;;;;28.48;10.02;;;;;;;6.47;100.00;100981.50;5041925;28;20404;-71
2021/11/21 00:47:43;;;;;;;29.33;10.32;;;;;;;6.51;100.00;100980.28;5044648;28;20130;-71
2021/11/21 00:50:13;;;;;;;29.20;9.88;;;;;;;6.50;100.00;100973.28;5042851;28;20049;-70
2021/11/21 00:52:41;;;;;;;38.67;10.98;;;;;;;6.49;100.00;100968.97;5040003;28;20063;-70
2021/11/21 00:55:13;;;;;;;28.52;11.27;;;;;;;6.48;100.00;100966.44;5042605;28;20044;-70
2021/11/21 00:57:41;;;;;;;28.33;10.85;;;;;;;6.47;100.00;100970.91;5042908;28;20053;-70
2021/11/21 01:00:11;;;;;;;28.00;10.32;;;;;;;6.47;100.00;100957.63;5045349;28;20053;-70
2021/11/21 01:02:42;;;;;;;31.95;11.05;;;;;;;6.51;100.00;100966.19;5039863;28;20049;-70
2021/11/21 01:05:11;;;;;;;29.52;12.55;;;;;;;6.44;100.00;100949.94;5036255;28;20037;-70
2021/11/21 01:07:40;;;;;;;33.85;12.18;;;;;;;6.50;100.00;100957.34;5040259;28;20061;-70
2021/11/21 01:10:11;;;;;;;38.45;12.13;;;;;;;6.48;100.00;100951.38;5038728;28;20127;-70
2021/11/21 01:12:40;;;;;;;39.13;11.75;;;;;;;6.48;100.00;100955.84;5043005;28;20056;-70
2021/11/21 01:15:11;;;;;;;41.22;13.35;;;;;;;6.43;100.00;100942.13;5041819;28;20033;-70
2021/11/21 01:17:39;;;;;;;42.95;16.02;;;;;;;6.46;100.00;100945.34;5040124;28;20060;-70
2021/11/21 01:20:10;;;;;;;45.10;15.88;;;;;;;6.42;100.00;100949.25;5041037;28;20114;-70
2021/11/21 01:22:38;;;;;;;39.60;13.35;;;;;;;6.44;100.00;100949.94;5041273;28;20373;-70
2021/11/21 01:25:08;;;;;;;46.50;15.48;;;;;;;6.44;100.00;100936.69;5040357;28;20383;-70
2021/11/21 01:27:36;;;;;;;50.65;14.77;;;;;;;6.46;100.00;100950.63;5041509;28;20081;-70
2021/11/21 01:30:09;;;;;;;45.42;13.82;;;;;;;6.46;100.00;100945.34;5039426;28;20042;-70
2021/11/21 01:32:37;;;;;;;48.05;17.45;;;;;;;6.52;100.00;100941.31;5038748;28;20259;-70
2021/11/21 01:35:08;;;;;;;55.97;17.58;;;;;;;6.47;100.00;100944.38;5039106;28;20048;-70
2021/11/21 01:37:36;;;;;;;46.58;14.82;;;;;;;6.51;100.00;100944.97;5044379;28;20392;-70
2021/11/21 01:40:05;;;;;;;49.42;15.98;;;;;;;6.54;100.00;100940.19;5040839;28;20049;-70
2021/11/21 01:42:33;;;;;;;52.85;17.25;;;;;;;6.53;100.00;100943.84;5040988;28;20049;-70
2021/11/21 01:45:01;;;;;;;46.60;15.85;;;;;;;6.47;100.00;100936.41;5043389;28;20072;-69
2021/11/21 01:47:29;;;;;;;52.53;17.55;;;;;;;6.52;100.00;100933.34;5039519;28;20037;-69
2021/11/21 01:49:57;;;;;;;57.75;17.42;;;;;;;6.48;100.00;100935.44;5039547;28;20056;-69
2021/11/21 01:52:27;;;;;;;59.00;17.05;;;;;;;6.45;100.00;100932.19;5039187;28;20049;-70
2021/11/21 01:54:55;;;;;;;52.22;17.02;;;;;;;6.51;100.00;100937.81;5042957;28;20436;-70
2021/11/21 01:57:23;;;;;;;57.72;15.93;;;;;;;6.58;100.00;100931.97;5040664;28;20030;-70
2021/11/21 01:59:52;;;;;;;47.17;17.30;;;;;;;6.59;100.00;100920.38;5039974;28;20041;-69
2021/11/21 02:02:20;;;;;;;47.33;15.05;;;;;;;6.53;100.00;100912.00;5037541;28;20123;-70
2021/11/21 02:04:49;;;;;;;43.08;15.45;;;;;;;6.55;100.00;100917.19;5036600;28;20042;-67
2021/11/21 02:07:17;;;;;;;54.78;15.68;;;;;;;6.53;100.00;100911.16;5038729;28;20046;-67
2021/11/21 02:09:46;;;;;;;47.50;16.65;;;;;;;6.53;100.00;100906.72;5039634;28;20499;-67
2021/11/21 02:12:14;;;;;;;45.55;15.05;;;;;;;6.58;100.00;100903.63;5037698;28;20049;-67
2021/11/21 02:14:42;;;;;;;49.58;14.88;;;;;;;6.60;100.00;100901.69;5042198;28;20041;-66
2021/11/21 02:17:10;;;;;;;46.30;14.55;;;;;;;6.54;100.00;100899.56;5039508;28;20053;-67
2021/11/21 02:19:37;;;;;;;58.65;16.05;;;;;;;6.51;100.00;100905.16;5043984;28;20245;-67
2021/11/21 02:22:07;;;;;;;48.38;15.57;;;;;;;6.49;100.00;100900.00;5038773;28;20044;-67
2021/11/21 02:24:37;;;;;;;51.95;15.40;;;;;;;6.51;100.00;100897.19;5041971;28;20044;-66
2021/11/21 02:27:06;;;;;;;50.95;15.90;;;;;;;6.55;100.00;100894.13;5041047;28;20040;-66
2021/11/21 02:29:34;;;;;;;49.45;15.13;;;;;;;6.51;100.00;100898.03;5039062;28;20049;-66
2021/11/21 02:32:02;;;;;;;42.85;13.95;;;;;;;6.53;100.00;100888.13;5037053;28;20049;-67
2021/11/21 02:34:31;;;;;;;49.05;16.25;;;;;;;6.55;100.00;100895.97;5038733;28;20059;-66
2021/11/21 02:36:59;;;;;;;45.28;14.60;;;;;;;6.55;100.00;100882.69;5039043;28;20038;-66
2021/11/21 02:39:28;;;;;;;43.83;15.77;;;;;;;6.59;100.00;100888.53;5042515;28;20098;-66
2021/11/21 02:41:56;;;;;;;48.53;14.70;;;;;;;6.59;100.00;100883.25;5038892;28;20045;-66
2021/11/21 02:44:26;;;;;;;43.70;14.60;;;;;;;6.58;100.00;100881.56;5042532;28;20045;-66
2021/11/21 02:46:55;;;;;;;44.05;13.30;;;;;;;6.62;100.00;100881.16;5037979;28;20057;-66
2021/11/21 02:49:23;;;;;;;47.67;15.63;;;;;;;6.60;100.00;100875.13;5042233;28;20059;-66
2021/11/21 02:51:51;;;;;;;44.92;14.43;;;;;;;6.57;100.00;100870.09;5037975;28;20071;-66
2021/11/21 02:54:19;;;;;;;48.60;15.80;;;;;;;6.53;100.00;100868.69;5039658;28;20049;-66
2021/11/21 02:56:48;;;;;;;42.67;14.88;;;;;;;6.58;100.00;100860.31;5039537;28;20334;-66
2021/11/21 02:59:25;;;;;;;46.80;17.55;;;;;;;6.66;100.00;100857.84;5038218;28;20082;-66
2021/11/21 03:01:53;;;;;;;45.72;15.48;;;;;;;6.59;100.00;100852.25;5039456;28;20041;-66
2021/11/21 03:04:22;;;;;;;42.35;13.10;;;;;;;6.68;100.00;100850.59;5041248;28;20036;-66
2021/11/21 03:06:50;;;;;;;37.17;13.13;;;;;;;6.69;100.00;100853.09;5040392;28;20045;-66
2021/11/21 03:09:22;;;;;;;38.95;14.63;;;;;;;6.73;100.00;100856.31;5040123;28;20044;-66
2021/11/21 03:11:53;;;;;;;47.78;15.93;;;;;;;6.64;100.00;100849.19;5037625;28;20252;-66
2021/11/21 03:14:23;;;;;;;39.08;14.23;;;;;;;6.74;100.00;100842.06;5039570;28;20380;-66
2021/11/21 03:16:51;;;;;;;43.70;15.13;;;;;;;6.57;100.00;100848.88;5039058;28;20090;-66
2021/11/21 03:19:19;;;;;;;44.40;15.68;;;;;;;6.52;100.00;100840.47;5032957;28;20441;-66
2021/11/21 03:21:47;;;;;;;45.17;16.30;;;;;;;6.61;100.00;100846.81;5040809;28;20036;-66
2021/11/21 03:24:15;;;;;;;51.15;15.98;;;;;;;6.64;100.00;100839.41;5039583;28;20037;-66
2021/11/21 03:26:44;;;;;;;39.55;15.48;;;;;;;6.67;100.00;100846.25;5037012;28;20095;-66
2021/11/21 03:29:13;;;;;;;45.83;15.98;;;;;;;6.64;100.00;100833.25;5056262;28;20380;-66
2021/11/21 03:31:41;;;;;;;51.20;16.48;;;;;;;6.69;100.00;100831.00;5033553;28;20586;-66
2021/11/21 03:34:09;;;;;;;46.50;15.02;;;;;;;6.72;100.00;100830.75;5042920;28;20057;-66
2021/11/21 03:36:38;;;;;;;48.10;16.35;;;;;;;6.63;100.00;100828.94;5038447;28;20040;-66
2021/11/21 03:39:08;;;;;;;48.70;16.05;;;;;;;6.66;100.00;100821.53;5037256;28;20041;-65
2021/11/21 03:41:36;;;;;;;52.60;17.88;;;;;;;6.68;100.00;100821.41;5040142;28;20570;-66
2021/11/21 03:44:05;;;;;;;52.50;16.92;;;;;;;6.69;100.00;100815.09;5039453;28;20563;-66
2021/11/21 03:46:35;;;;;;;49.05;16.33;;;;;;;6.69;100.00;100817.75;5043305;28;20052;-65
2021/11/21 03:49:05;;;;;;;43.97;15.75;;;;;;;6.82;100.00;100821.00;5037586;28;20033;-66
2021/11/21 03:51:33;;;;;;;50.88;16.65;;;;;;;6.71;100.00;100821.13;5034397;28;20060;-66
2021/11/21 03:54:01;;;;;;;47.13;16.40;;;;;;;6.65;100.00;100811.91;5042791;28;20048;-66
2021/11/21 03:56:29;;;;;;;48.53;14.90;;;;;;;6.73;100.00;100808.53;5041474;28;20170;-65
2021/11/21 03:58:57;;;;;;;56.65;16.83;;;;;;;6.79;100.00;100813.31;5044990;28;20210;-66
2021/11/21 04:01:25;;;;;;;53.13;14.77;;;;;;;6.74;100.00;100817.34;5039866;28;20172;-66
2021/11/21 04:03:54;;;;;;;42.95;14.85;;;;;;;6.79;100.00;100818.63;5039930;28;20321;-68
2021/11/21 04:06:22;;;;;;;41.50;16.02;;;;;;;6.86;100.00;100809.13;5044364;28;20041;-65
2021/11/21 04:08:50;;;;;;;46.47;13.77;;;;;;;6.76;100.00;100808.25;5045729;28;20048;-65
2021/11/21 04:11:18;;;;;;;44.38;16.08;;;;;;;6.83;100.00;100803.25;5044099;28;20120;-65
2021/11/21 04:13:46;;;;;;;46.95;13.82;;;;;;;6.72;100.00;100798.91;5039750;28;20049;-68
2021/11/21 04:16:14;;;;;;;38.15;14.32;;;;;;;6.70;100.00;100795.53;5040429;28;20330;-68
2021/11/21 04:18:42;;;;;;;40.10;13.95;;;;;;;6.74;100.00;100794.28;5043163;28;20412;-68
2021/11/21 04:21:11;;;;;;;43.90;13.88;;;;;;;6.75;100.00;100795.13;5036938;28;20048;-68
2021/11/21 04:23:39;;;;;;;41.60;14.10;;;;;;;6.81;100.00;100797.25;5043726;28;20127;-68
2021/11/21 04:26:07;;;;;;;40.60;14.15;;;;;;;6.82;100.00;100789.13;5037950;28;20095;-69
2021/11/21 04:28:36;;;;;;;37.95;14.40;;;;;;;6.81;100.00;100787.44;5046242;28;20041;-68
2021/11/21 04:31:04;;;;;;;44.60;14.05;;;;;;;6.85;100.00;100780.88;5039778;28;20432;-69
2021/11/21 04:33:32;;;;;;;37.20;13.00;;;;;;;6.82;100.00;100781.19;5037246;28;20045;-69
2021/11/21 04:36:01;;;;;;;44.33;14.32;;;;;;;6.80;100.00;100783.13;5046708;28;20042;-68
2021/11/21 04:38:30;;;;;;;37.08;12.52;;;;;;;6.84;100.00;100781.03;5042622;28;20060;-68
2021/11/21 04:40:58;;;;;;;37.08;13.15;;;;;;;6.81;100.00;100773.34;5042074;28;20371;-68
2021/11/21 04:43:26;;;;;;;36.13;13.32;;;;;;;6.82;100.00;100764.38;5041898;28;20380;-68
2021/11/21 04:45:54;;;;;;;34.85;13.55;;;;;;;6.86;100.00;100774.63;5043842;28;20037;-68
2021/11/21 04:48:22;;;;;;;39.72;13.85;;;;;;;6.85;100.00;100762.31;5042963;28;20088;-69
2021/11/21 04:50:51;;;;;;;42.25;14.02;;;;;;;6.77;100.00;100764.00;5041501;28;20425;-69
2021/11/21 04:53:19;;;;;;;47.65;15.93;;;;;;;6.77;100.00;100758.69;5044714;28;20049;-70
2021/11/21 04:55:49;;;;;;;44.72;14.45;;;;;;;6.80;100.00;100759.22;5043615;28;20049;-71
2021/11/21 04:58:17;;;;;;;46.95;16.15;;;;;;;6.88;100.00;100756.72;5044507;28;20045;-69
2021/11/21 05:00:45;;;;;;;43.60;13.05;;;;;;;6.86;100.00;100763.13;5045053;28;20046;-69
2021/11/21 05:03:13;;;;;;;55.17;16.30;;;;;;;6.89;100.00;100754.91;5036271;28;20383;-69
2021/11/21 05:05:41;;;;;;;45.13;13.93;;;;;;;6.89;100.00;100755.75;5046717;28;20052;-68
2021/11/21 05:08:10;;;;;;;36.10;13.80;;;;;;;6.90;100.00;100740.63;5038983;28;20053;-69
2021/11/21 05:10:38;;;;;;;42.67;14.85;;;;;;;6.84;100.00;100736.72;5038284;28;20376;-69
2021/11/21 05:13:07;;;;;;;40.30;14.05;;;;;;;6.89;100.00;100731.84;5037128;28;20050;-68
2021/11/21 05:15:35;;;;;;;38.08;13.73;;;;;;;6.88;100.00;100730.16;5040941;28;20049;-69
2021/11/21 05:18:03;;;;;;;45.72;12.77;;;;;;;6.85;100.00;100740.25;5044337;28;20041;-69
2021/11/21 05:20:31;;;;;;;40.00;14.40;;;;;;;6.89;100.00;100731.03;5039429;28;20099;-69
2021/11/21 05:22:59;;;;;;;44.15;14.73;;;;;;;6.86;100.00;100729.47;5044905;28;20102;-68
2021/11/21 05:25:27;;;;;;;46.55;13.77;;;;;;;6.87;100.00;100727.66;5040817;28;20056;-68
2021/11/21 05:27:55;;;;;;;42.38;13.88;;;;;;;6.86;100.00;100721.53;5040584;28;20041;-68
2021/11/21 05:30:24;;;;;;;47.30;14.60;;;;;;;6.86;100.00;100729.47;5045006;28;20045;-68
2021/11/21 05:32:53;;;;;;;43.78;13.10;;;;;;;6.97;100.00;100727.66;5040326;28;20053;-68
2021/11/21 05:35:21;;;;;;;44.70;14.77;;;;;;;6.86;100.00;100726.81;5039774;28;20045;-68
2021/11/21 05:37:50;;;;;;;52.25;14.05;;;;;;;6.86;100.00;100729.47;5041750;28;20132;-68
2021/11/21 05:40:19;;;;;;;44.70;16.40;;;;;;;6.83;100.00;100727.13;5039122;28;20045;-68
2021/11/21 05:42:48;;;;;;;54.15;15.57;;;;;;;6.85;100.00;100732.28;5038163;28;20050;-68
2021/11/21 05:45:16;;;;;;;48.88;16.30;;;;;;;6.89;100.00;100723.06;5041299;28;20043;-68
2021/11/21 05:47:45;;;;;;;58.92;17.25;;;;;;;6.88;100.00;100726.69;5042375;28;20069;-68
2021/11/21 05:50:14;;;;;;;54.10;16.73;;;;;;;6.97;100.00;100717.03;5039767;28;20059;-68
2021/11/21 05:52:42;;;;;;;58.30;18.88;;;;;;;6.89;100.00;100721.22;5036951;28;20045;-68
2021/11/21 05:55:11;;;;;;;54.90;18.33;;;;;;;6.93;100.00;100718.28;5043645;28;20237;-68
2021/11/21 05:57:39;;;;;;;62.80;18.55;;;;;;;6.94;100.00;100722.63;5039332;28;20091;-68
2021/11/21 06:00:10;;;;;;;57.03;19.13;;;;;;;6.92;100.00;100713.94;5047155;28;20045;-68
2021/11/21 06:02:37;;;;;;;60.05;18.65;;;;;;;6.94;100.00;100719.97;5042766;28;20037;-68
2021/11/21 06:05:08;;;;;;;59.50;19.35;;;;;;;7.02;100.00;100718.28;5038985;28;20049;-68
2021/11/21 06:07:36;;;;;;;66.60;20.98;;;;;;;7.04;100.00;100715.47;5040671;28;20082;-68
2021/11/21 06:10:05;;;;;;;62.80;19.77;;;;;;;7.05;100.00;100709.19;5039321;28;20368;-68
2021/11/21 06:12:33;;;;;;;55.85;19.27;;;;;;;7.03;100.00;100705.81;5037819;28;20041;-68
2021/11/21 06:15:06;;;;;;;64.95;19.58;;;;;;;6.94;100.00;100701.38;5039228;28;20068;-68
2021/11/21 06:17:35;;;;;;;75.45;22.75;;;;;;;6.95;100.00;100698.59;5043954;28;20047;-68
2021/11/21 06:20:04;;;;;;;78.80;20.50;;;;;;;7.02;100.00;100704.16;5034864;28;20049;-68
2021/11/21 06:22:33;;;;;;;83.00;23.73;;;;;;;6.96;100.00;100702.06;5035972;28;20045;-68
2021/11/21 06:25:01;;;;;;;65.10;20.92;;;;;;;7.04;100.00;100712.81;5038105;28;20050;-68
2021/11/21 06:27:29;;;;;;;68.22;20.60;;;;;;;7.04;100.00;100699.53;5040007;28;20086;-68
2021/11/21 06:29:57;;;;;;;72.45;22.40;;;;;;;7.07;100.00;100697.47;5040196;28;20460;-68
2021/11/21 06:32:25;;;;;;;70.13;21.40;;;;;;;7.12;100.00;100707.63;5040561;28;20099;-69
2021/11/21 06:34:55;;;;;;;68.38;21.63;;;;;;;7.04;100.00;100700.38;5041010;28;20506;-68
2021/11/21 06:37:23;;;;;;;73.68;19.83;;;;;;;7.07;100.00;100696.59;5041330;28;20041;-69
2021/11/21 06:39:52;;;;;;;71.63;22.23;;;;;;;7.00;100.00;100695.50;5039672;28;20038;-68
2021/11/21 06:42:20;;;;;;;80.20;22.95;;;;;;;7.00;100.00;100695.50;5038540;28;20043;-68
2021/11/21 06:44:48;;;;;;;74.05;20.40;;;;;;;6.98;100.00;100702.78;5038860;28;20054;-68
2021/11/21 06:47:18;;;;;;;81.13;23.75;;;;;;;6.97;100.00;100693.97;5039012;28;20463;-68
2021/11/21 06:49:46;;;;;;;80.63;23.02;;;;;;;7.02;100.00;100693.56;5038056;28;20045;-68
2021/11/21 06:52:15;;;;;;;74.85;22.30;;;;;;;7.04;100.00;100707.50;5035165;28;20041;-68
2021/11/21 06:54:43;;;;;;;64.95;20.80;;;;;;;7.03;100.00;100706.69;5039031;28;20053;-68
2021/11/21 06:57:13;;;;;;;71.90;20.50;;;;;;;7.06;100.00;100716.19;5039790;28;20056;-68
2021/11/21 06:59:41;;;;;;;73.30;19.60;;;;;;;7.04;100.00;100718.13;5044209;28;20040;-68
2021/11/21 07:02:09;;;;;;;70.90;19.85;;;;;;;7.03;100.00;100719.09;5034754;28;20403;-68
2021/11/21 07:04:37;;;;;;;67.07;20.52;;;;;;;7.01;100.00;100719.25;5039596;28;20048;-68
2021/11/21 07:07:07;;;;;;;57.95;18.55;;;;;;;7.06;100.00;100727.63;5041470;28;20044;-68
2021/11/21 07:09:36;;;;;;;46.53;15.35;;;;;;;7.16;100.00;100726.75;5037760;28;20048;-68
2021/11/21 07:12:05;;;;;;;46.30;15.13;;;;;;;7.26;100.00;100719.63;5038805;28;20057;-68
2021/11/21 07:14:37;;;;;;;63.83;17.85;;;;;;;7.18;100.00;100736.28;5038892;28;20037;-68
2021/11/21 07:17:05;;;;;;;61.13;16.88;;;;;;;7.11;100.00;100734.34;5039876;28;20413;-67
2021/11/21 07:19:33;;;;;;;49.35;15.55;;;;;;;7.22;100.00;100750.13;5038205;28;20037;-68
2021/11/21 07:22:02;;;;;;;59.40;18.45;;;;;;;7.18;100.00;100746.06;5036904;28;20072;-68
2021/11/21 07:24:31;;;;;;;56.88;17.27;;;;;;;7.18;100.00;100746.91;5042313;28;20392;-68
2021/11/21 07:26:59;;;;;;;55.38;19.83;;;;;;;7.17;100.00;100755.88;5032411;28;20045;-69
2021/11/21 07:29:29;;;;;;;63.80;18.05;;;;;;;7.22;100.00;100755.44;5037287;28;20053;-69
2021/11/21 07:32:01;;;;;;;56.42;18.77;;;;;;;7.27;100.00;100760.31;5035442;28;20049;-68
2021/11/21 07:34:32;;;;;;;52.08;16.85;;;;;;;7.36;100.00;100752.31;5036671;28;20049;-68
2021/11/21 07:37:00;;;;;;;65.45;20.38;;;;;;;7.29;100.00;100756.53;5036259;28;20376;-68
2021/11/21 07:39:28;;;;;;;65.35;20.88;;;;;;;7.30;100.00;100760.00;5038160;28;20102;-68
2021/11/21 07:41:56;;;;;;;65.68;19.73;;;;;;;7.43;100.00;100765.00;5039314;28;20445;-68
2021/11/21 07:44:25;;;;;;;69.13;20.05;;;;;;;7.36;100.00;100760.28;5038238;28;20441;-68
2021/11/21 07:46:54;;;;;;;61.88;20.05;;;;;;;7.38;100.00;100762.78;5040524;28;20047;-68
2021/11/21 07:49:24;;;;;;;60.28;20.38;;;;;;;7.44;100.00;100766.69;5041067;28;20310;-68
2021/11/21 07:51:52;;;;;;;71.63;21.15;;;;;;;7.44;100.00;100762.22;5036251;28;20048;-68
2021/11/21 07:54:20;;;;;;;69.18;19.90;;;;;;;7.49;100.00;100773.25;5039472;28;20056;-68
2021/11/21 07:56:47;;;;;;;68.57;20.77;;;;;;;7.49;100.00;100767.13;5040391;28;20437;-68
2021/11/21 07:59:15;;;;;;;71.70;20.35;;;;;;;7.51;100.00;100776.63;5042860;28;20041;-68
2021/11/21 08:01:46;;;;;;;72.68;21.55;;;;;;;7.58;100.00;100764.44;5036097;28;20438;-68
2021/11/21 08:04:15;;;;;;;75.80;21.60;;;;;;;7.61;100.00;100773.91;5036257;28;20489;-68
2021/11/21 08:06:47;;;;;;;70.03;21.77;;;;;;;7.59;100.00;100775.88;5038103;28;20041;-68
2021/11/21 08:09:15;;;;;;;79.72;21.98;;;;;;;7.62;100.00;100775.59;5039412;28;20044;-68
2021/11/21 08:11:43;;;;;;;74.53;22.08;;;;;;;7.65;100.00;100780.63;5038282;28;20060;-68
2021/11/21 08:14:11;;;;;;;77.65;22.70;;;;;;;7.69;100.00;100781.19;5038874;28;20045;-68
2021/11/21 08:16:38;;;;;;;76.75;25.25;;;;;;;7.63;100.00;100782.59;5044174;28;20045;-68
2021/11/21 08:19:08;;;;;;;79.07;22.05;;;;;;;7.67;100.00;100785.78;5043178;28;20119;-69
2021/11/21 08:21:36;;;;;;;68.00;22.55;;;;;;;7.67;100.00;100793.75;5038894;28;20495;-70
2021/11/21 08:24:07;;;;;;;68.72;22.35;;;;;;;7.71;100.00;100789.84;5039130;28;20099;-69
2021/11/21 08:26:35;;;;;;;65.57;22.90;;;;;;;7.67;100.00;100794.63;5038851;28;20049;-70
2021/11/21 08:29:04;;;;;;;70.50;23.95;;;;;;;7.67;100.00;100793.75;5042028;28;20046;-70
2021/11/21 08:31:52;;;;;;;59.85;20.70;;;;;;;7.62;100.00;100798.69;5036939;28;20180;-69
2021/11/21 08:34:20;;;;;;;55.92;20.42;;;;;;;7.58;100.00;100784.84;5035115;28;20476;-67
2021/11/21 08:36:49;;;;;;;35.95;12.05;;;;;;;7.50;100.00;100787.38;5034546;28;20511;-70
2021/11/21 08:39:21;;;;;;;25.42;9.38;;;;;;;7.54;100.00;100786.09;5035594;28;20038;-69
2021/11/21 08:41:48;;;;;;;23.70;10.00;;;;;;;7.55;100.00;100770.00;5037641;28;20122;-70
2021/11/21 08:44:16;;;;;;;19.85;7.55;;;;;;;7.61;100.00;100773.09;5037560;28;20216;-69
2021/11/21 08:46:45;;;;;;;17.75;8.10;;;;;;;7.61;100.00;100768.59;5040870;28;20053;-68
2021/11/21 08:49:13;;;;;;;19.00;7.78;;;;;;;7.55;100.00;100770.00;5041656;28;20527;-69
2021/11/21 08:51:43;;;;;;;23.13;9.25;;;;;;;7.56;100.00;100771.69;5040510;28;20053;-69
2021/11/21 08:54:11;;;;;;;24.80;8.15;;;;;;;7.65;100.00;100769.16;5041275;28;20046;-69
2021/11/21 08:56:40;;;;;;;19.02;8.50;;;;;;;7.66;100.00;100758.38;5040119;28;20133;-69
2021/11/21 08:59:09;;;;;;;17.20;8.82;;;;;;;7.74;100.00;100749.69;5044185;28;20380;-69
2021/11/21 09:01:37;;;;;;;16.52;7.75;;;;;;;7.71;100.00;100741.97;5041201;28;20046;-69
2021/11/21 09:04:05;;;;;;;15.60;5.78;;;;;;;7.57;100.00;100749.47;5040004;28;20102;-69
2021/11/21 09:06:33;;;;;;;17.17;6.22;;;;;;;7.60;100.00;100745.69;5039305;28;20052;-69
2021/11/21 09:09:01;;;;;;;15.82;5.70;;;;;;;7.63;100.00;100749.88;5044586;28;20037;-69
2021/11/21 09:11:29;;;;;;;12.30;3.83;;;;;;;7.58;100.00;100753.81;5044338;28;20046;-69
2021/11/21 09:14:04;;;;;;;10.27;4.57;;;;;;;7.55;100.00;100758.56;5043404;28;20049;-68
2021/11/21 09:16:32;;;;;;;12.98;5.25;;;;;;;7.44;100.00;100754.25;5043719;28;20091;-69
2021/11/21 09:19:00;;;;;;;13.20;3.83;;;;;;;7.42;100.00;100750.91;5042530;28;20051;-69
2021/11/21 09:21:27;;;;;;;6.07;2.78;;;;;;;7.36;100.00;100757.63;5040539;28;20045;-69
2021/11/21 09:23:56;;;;;;;15.02;5.45;;;;;;;7.32;100.00;100758.06;5043557;28;20144;-69
2021/11/21 09:26:25;;;;;;;11.85;4.47;;;;;;;7.26;100.00;100755.97;5039932;28;20037;-69
2021/11/21 09:28:53;;;;;;;17.75;5.78;;;;;;;7.19;100.00;100758.38;5045562;28;20041;-69
2021/11/21 09:31:23;;;;;;;20.38;6.97;;;;;;;7.18;100.00;100762.00;5042060;28;20049;-69
2021/11/21 09:33:51;;;;;;;18.48;5.43;;;;;;;7.16;100.00;100756.84;5042202;28;20052;-69
2021/11/21 09:36:19;;;;;;;24.25;6.13;;;;;;;7.19;100.00;100767.16;5042313;28;20324;-69
2021/11/21 09:38:47;;;;;;;18.60;6.68;;;;;;;7.15;100.00;100771.09;5043498;28;20445;-69
2021/11/21 09:41:16;;;;;;;24.88;5.88;;;;;;;7.12;100.00;100767.91;5039834;28;20044;-69
2021/11/21 09:43:44;;;;;;;26.45;6.88;;;;;;;7.11;100.00;100775.00;5036616;28;20041;-69
2021/11/21 09:46:14;;;;;;;28.05;9.02;;;;;;;7.11;100.00;100761.72;5044340;28;20041;-69
2021/11/21 09:48:43;;;;;;;18.40;5.32;;;;;;;7.24;100.00;100762.28;5043529;28;20049;-70
2021/11/21 09:51:11;;;;;;;13.13;4.53;;;;;;;7.31;100.00;100767.00;5040235;28;20375;-69
2021/11/21 09:53:40;;;;;;;12.10;3.72;;;;;;;7.35;100.00;100757.78;5043911;28;20045;-69
2021/11/21 09:56:08;;;;;;;10.77;2.55;;;;;;;7.40;100.00;100751.06;5040796;28;20041;-69
2021/11/21 09:58:36;;;;;;;9.02;2.42;;;;;;;7.58;100.00;100753.81;5042946;28;20090;-69
2021/11/21 10:01:04;;;;;;;9.18;2.10;;;;;;;7.57;100.00;100749.47;5042097;28;20387;-69
2021/11/21 10:03:33;;;;;;;5.05;1.58;;;;;;;7.51;100.00;100750.06;5039279;28;20041;-69
2021/11/21 10:06:07;;;;;;;7.55;1.83;;;;;;;7.63;100.00;100749.88;5042894;28;20049;-69
2021/11/21 10:08:35;;;;;;;7.90;1.58;;;;;;;7.73;100.00;100746.19;5037407;28;20044;-70
2021/11/21 10:11:08;;;;;;;4.18;1.25;;;;;;;7.72;100.00;100751.63;5041457;28;20279;-69
2021/11/21 10:13:40;;;;;;;4.20;1.60;;;;;;;7.69;100.00;100757.25;5041374;28;20049;-69
2021/11/21 10:16:27;;;;;;;3.80;1.20;;;;;;;7.79;100.00;100755.38;5038137;28;20042;-69
2021/11/21 10:18:58;;;;;;;2.28;1.20;;;;;;;7.94;100.00;100753.09;5041159;28;20045;-70
2021/11/21 10:21:29;;;;;;;3.58;1.10;;;;;;;7.93;100.00;100759.38;5038111;28;20380;-70
2021/11/21 10:24:11;;;;;;;5.13;1.33;;;;;;;7.95;100.00;100756.59;5038631;28;20045;-69
2021/11/21 10:26:40;;;;;;;3.90;1.38;;;;;;;7.99;100.00;100765.94;5041182;28;20060;-74
2021/11/21 10:29:28;;;;;;;4.78;1.30;;;;;;;8.10;100.00;100771.88;5039383;28;20037;-74
2021/11/21 10:31:56;;;;;;;3.25;1.23;;;;;;;8.03;100.00;100762.84;5040449;28;20408;-74
2021/11/21 10:34:24;;;;;;;2.53;1.25;;;;;;;8.15;100.00;100767.94;5040016;28;20075;-74
2021/11/21 10:36:54;;;;;;;4.45;1.60;;;;;;;8.36;100.00;100763.19;5040646;28;20057;-70
2021/11/21 10:39:27;;;;;;;6.15;1.08;;;;;;;8.22;100.00;100775.22;5040698;28;20053;-66
2021/11/21 10:41:57;;;;;;;5.15;1.38;;;;;;;7.87;100.00;100774.09;5038366;28;20100;-65
2021/11/21 10:44:26;;;;;;;1.45;1.10;;;;;;;7.83;100.00;100775.38;5039654;28;20039;-65
2021/11/21 10:46:58;;;;;;;4.80;1.75;;;;;;;7.83;100.00;100774.56;5037968;28;20336;-65
2021/11/21 10:49:29;;;;;;;6.80;2.90;;;;;;;7.65;100.00;100779.78;5039676;28;20045;-65
2021/11/21 10:52:15;;;;;;;7.65;2.25;;;;;;;7.58;100.00;100779.53;5039190;28;20440;-65
2021/11/21 10:54:45;;;;;;;7.85;2.17;;;;;;;7.63;100.00;100784.44;5042353;28;20325;-65
2021/11/21 10:57:16;;;;;;;4.72;1.30;;;;;;;7.59;100.00;100781.22;5043302;28;20049;-65
2021/11/21 10:59:50;;;;;;;5.05;1.40;;;;;;;7.63;100.00;100787.09;5042193;28;20445;-65
2021/11/21 11:02:22;;;;;;;7.43;1.50;;;;;;;7.56;100.00;100792.13;5040031;28;20049;-66
2021/11/21 11:05:06;;;;;;;4.43;1.85;;;;;;;7.43;100.00;100805.72;5041423;28;20509;-66
2021/11/21 11:07:39;;;;;;;7.03;1.38;;;;;;;7.35;100.00;100805.59;5039982;28;20413;-65
2021/11/21 11:10:10;;;;;;;7.68;2.00;;;;;;;7.41;100.00;100810.34;5037512;28;20424;-66
2021/11/21 11:12:39;;;;;;;8.07;3.20;;;;;;;7.40;100.00;100812.16;5035420;28;20052;-63
2021/11/21 11:15:07;;;;;;;11.50;4.32;;;;;;;7.37;100.00;100811.59;5038043;28;20382;-64
2021/11/21 11:17:37;;;;;;;11.75;5.03;;;;;;;7.39;100.00;100807.00;5039209;28;20123;-63
2021/11/21 11:20:07;;;;;;;19.48;5.43;;;;;;;7.54;100.00;100816.19;5039328;28;20056;-65